createdAt,value
2023-09-27T00:00:35.676Z,101530.06
2023-09-27T00:03:05.092Z,101543.91
2023-09-27T00:05:33.524Z,101538.94
2023-09-27T00:08:01.944Z,101536.56
2023-09-27T00:10:30.107Z,101537.63
2023-09-27T00:12:58.306Z,101528.31
2023-09-27T00:15:26.530Z,101540.38
2023-09-27T00:17:55.833Z,101537.91
2023-09-27T00:20:24.355Z,101549.28
2023-09-27T00:22:56.809Z,101556.94
2023-09-27T00:25:25.503Z,101551.97
2023-09-27T00:27:53.523Z,101548.78
2023-09-27T00:30:22.591Z,101551.31
2023-09-27T00:32:50.790Z,101554.63
2023-09-27T00:35:24.113Z,101564.00
2023-09-27T00:37:53.385Z,101563.28
2023-09-27T00:40:24.529Z,101560.09
2023-09-27T00:42:52.814Z,101560.13
2023-09-27T00:45:21.265Z,101563.50
2023-09-27T00:47:53.253Z,101584.13
2023-09-27T00:50:21.735Z,101587.69
2023-09-27T00:52:51.084Z,101585.28
2023-09-27T00:55:22.111Z,101591.28
2023-09-27T00:57:55.527Z,101591.28
2023-09-27T01:00:24.461Z,101591.31
2023-09-27T01:02:53.835Z,101583.69
2023-09-27T01:05:22.541Z,101594.94
2023-09-27T01:07:50.799Z,101605.13
2023-09-27T01:10:19.426Z,101605.13
2023-09-27T01:12:47.642Z,101613.78
2023-09-27T01:15:16.094Z,101618.13
2023-09-27T01:17:59.192Z,101607.22
2023-09-27T01:20:33.949Z,101612.38
2023-09-27T01:23:07.730Z,101615.75
2023-09-27T01:25:40.560Z,101618.16
2023-09-27T01:28:12.996Z,101609.66
2023-09-27T01:30:41.227Z,101603.59
2023-09-27T01:33:13.285Z,101597.41
2023-09-27T01:35:46.034Z,101593.97
2023-09-27T01:38:15.045Z,101593.06
2023-09-27T01:40:46.638Z,101593.16
2023-09-27T01:43:14.967Z,101602.56
2023-09-27T01:45:44.378Z,101608.66
2023-09-27T01:48:12.511Z,101613.97
2023-09-27T01:50:40.605Z,101621.84
2023-09-27T01:53:09.201Z,101624.44
2023-09-27T01:55:37.554Z,101626.84
2023-09-27T01:58:06.834Z,101612.25
2023-09-27T02:00:35.102Z,101615.56
2023-09-27T02:03:04.873Z,101599.75
2023-09-27T02:05:33.478Z,101602.25
2023-09-27T02:08:02.426Z,101606.50
2023-09-27T02:10:31.089Z,101616.72
2023-09-27T02:13:00.098Z,101611.78
2023-09-27T02:15:28.448Z,101611.13
2023-09-27T02:17:56.643Z,101610.44
2023-09-27T02:20:27.054Z,101608.13
2023-09-27T02:22:57.090Z,101606.41
2023-09-27T02:25:25.478Z,101608.31
2023-09-27T02:27:54.984Z,101611.00
2023-09-27T02:30:23.330Z,101612.75
2023-09-27T02:32:51.398Z,101611.09
2023-09-27T02:35:21.471Z,101610.41
2023-09-27T02:37:49.564Z,101598.53
2023-09-27T02:40:19.225Z,101606.44
2023-09-27T02:42:50.551Z,101600.59
2023-09-27T02:45:18.782Z,101592.81
2023-09-27T02:47:48.332Z,101585.59
2023-09-27T02:50:17.593Z,101575.47
2023-09-27T02:52:45.910Z,101561.50
2023-09-27T02:55:15.907Z,101566.00
2023-09-27T02:57:54.245Z,101560.28
2023-09-27T03:00:23.452Z,101568.25
2023-09-27T03:02:51.993Z,101565.00
2023-09-27T03:05:21.834Z,101566.19
2023-09-27T03:07:50.069Z,101560.47
2023-09-27T03:10:19.736Z,101569.13
2023-09-27T03:12:50.925Z,101567.59
2023-09-27T03:15:20.167Z,101559.34
2023-09-27T03:18:08.891Z,101559.66
2023-09-27T03:20:37.938Z,101563.13
2023-09-27T03:23:06.062Z,101570.63
2023-09-27T03:25:34.146Z,101566.50
2023-09-27T03:28:02.268Z,101572.72
2023-09-27T03:30:30.605Z,101583.22
2023-09-27T03:32:58.728Z,101582.59
2023-09-27T03:35:26.825Z,101568.84
2023-09-27T03:37:58.516Z,101574.69
2023-09-27T03:40:26.724Z,101576.94
2023-09-27T03:42:54.781Z,101565.78
2023-09-27T03:45:22.770Z,101560.66
2023-09-27T03:47:51.458Z,101554.47
2023-09-27T03:50:22.058Z,101551.06
2023-09-27T03:52:50.504Z,101557.06
2023-09-27T03:55:18.783Z,101558.91
2023-09-27T03:57:46.873Z,101567.66
2023-09-27T04:00:18.536Z,101570.34
2023-09-27T04:02:49.825Z,101577.25
2023-09-27T04:05:19.684Z,101579.22
2023-09-27T04:07:48.300Z,101580.28
2023-09-27T04:10:19.086Z,101582.22
2023-09-27T04:12:48.981Z,101586.53
2023-09-27T04:15:17.693Z,101583.91
2023-09-27T04:17:45.894Z,101582.97
2023-09-27T04:20:20.533Z,101586.03
2023-09-27T04:22:51.287Z,101589.50
2023-09-27T04:25:20.512Z,101598.28
2023-09-27T04:27:51.964Z,101590.78
2023-09-27T04:30:23.362Z,101590.88
2023-09-27T04:32:53.492Z,101590.16
2023-09-27T04:35:23.245Z,101600.34
2023-09-27T04:37:51.730Z,101605.41
2023-09-27T04:40:20.997Z,101608.78
2023-09-27T04:42:49.544Z,101614.00
2023-09-27T04:45:17.653Z,101613.31
2023-09-27T04:47:46.888Z,101605.69
2023-09-27T04:50:17.319Z,101604.69
2023-09-27T04:52:46.514Z,101609.69
2023-09-27T04:55:15.032Z,101607.97
2023-09-27T04:57:43.118Z,101602.19
2023-09-27T05:00:21.466Z,101602.31
2023-09-27T05:02:50.850Z,101603.16
2023-09-27T05:05:19.227Z,101600.53
2023-09-27T05:07:47.956Z,101614.28
2023-09-27T05:10:16.709Z,101609.31
2023-09-27T05:12:45.119Z,101600.91
2023-09-27T05:15:13.328Z,101606.78
2023-09-27T05:17:41.489Z,101605.84
2023-09-27T05:20:14.309Z,101603.44
2023-09-27T05:22:43.580Z,101601.91
2023-09-27T05:25:12.972Z,101607.97
2023-09-27T05:27:42.075Z,101604.53
2023-09-27T05:30:14.529Z,101611.09
2023-09-27T05:32:47.676Z,101624.72
2023-09-27T05:35:16.015Z,101630.78
2023-09-27T05:37:44.430Z,101624.88
2023-09-27T05:40:13.546Z,101633.34
2023-09-27T05:42:42.661Z,101626.41
2023-09-27T05:45:15.193Z,101625.56
2023-09-27T05:47:43.486Z,101627.31
2023-09-27T05:50:14.222Z,101632.41
2023-09-27T05:52:48.168Z,101626.03
2023-09-27T05:55:17.562Z,101617.06
2023-09-27T05:57:46.173Z,101617.47
2023-09-27T06:00:16.936Z,101624.19
2023-09-27T06:02:45.122Z,101642.97
2023-09-27T06:05:13.327Z,101645.72
2023-09-27T06:07:41.508Z,101651.75
2023-09-27T06:10:10.518Z,101656.00
2023-09-27T06:12:39.407Z,101657.41
2023-09-27T06:15:11.715Z,101639.63
2023-09-27T06:17:40.040Z,101624.13
2023-09-27T06:20:13.683Z,101614.78
2023-09-27T06:22:42.185Z,101640.03
2023-09-27T06:25:10.714Z,101633.56
2023-09-27T06:27:38.779Z,101614.84
2023-09-27T06:30:08.941Z,101611.47
2023-09-27T06:32:38.577Z,101621.84
2023-09-27T06:35:14.654Z,101626.19
2023-09-27T06:37:50.843Z,101624.03
2023-09-27T06:40:21.033Z,101622.31
2023-09-27T06:42:49.905Z,101619.88
2023-09-27T06:45:18.489Z,101605.84
2023-09-27T06:47:47.992Z,101595.06
2023-09-27T06:50:19.017Z,101597.03
2023-09-27T06:52:49.573Z,101588.66
2023-09-27T06:55:20.828Z,101582.41
2023-09-27T06:57:51.670Z,101588.72
2023-09-27T07:00:25.828Z,101597.94
2023-09-27T07:02:55.178Z,101613.22
2023-09-27T07:05:24.614Z,101611.16
2023-09-27T07:07:55.495Z,101604.56
2023-09-27T07:10:25.534Z,101599.69
2023-09-27T07:12:54.025Z,101598.16
2023-09-27T07:15:22.356Z,101606.94
2023-09-27T07:17:51.378Z,101618.41
2023-09-27T07:20:22.590Z,101620.63
2023-09-27T07:22:50.804Z,101635.75
2023-09-27T07:25:21.432Z,101636.16
2023-09-27T07:27:52.947Z,101635.38
2023-09-27T07:30:27.628Z,101630.91
2023-09-27T07:32:57.039Z,101636.69
2023-09-27T07:35:29.031Z,101622.38
2023-09-27T07:37:57.453Z,101624.34
2023-09-27T07:40:25.688Z,101623.41
2023-09-27T07:42:53.725Z,101617.53
2023-09-27T07:45:31.737Z,101617.91
2023-09-27T07:48:00.617Z,101611.97
2023-09-27T07:50:33.151Z,101620.13
2023-09-27T07:53:10.131Z,101608.66
2023-09-27T07:55:50.332Z,101618.22
2023-09-27T07:58:19.301Z,101607.94
2023-09-27T08:00:47.514Z,101597.25
2023-09-27T08:03:20.525Z,101587.56
2023-09-27T08:05:51.001Z,101577.41
2023-09-27T08:08:19.277Z,101580.16
2023-09-27T08:10:48.895Z,101589.19
2023-09-27T08:13:19.868Z,101591.97
2023-09-27T08:15:50.908Z,101587.50
2023-09-27T08:18:19.651Z,101595.50
2023-09-27T08:20:48.369Z,101601.44
2023-09-27T08:23:16.434Z,101602.25
2023-09-27T08:25:45.040Z,101594.72
2023-09-27T08:28:13.171Z,101581.88
2023-09-27T08:30:42.542Z,101580.53
2023-09-27T08:33:10.861Z,101587.63
2023-09-27T08:35:39.550Z,101586.28
2023-09-27T08:38:08.342Z,101587.59
2023-09-27T08:40:38.834Z,101580.53
2023-09-27T08:43:07.472Z,101565.84
2023-09-27T08:45:39.786Z,101561.75
2023-09-27T08:48:13.857Z,101560.50
2023-09-27T08:50:42.839Z,101568.75
2023-09-27T08:53:12.300Z,101570.91
2023-09-27T08:55:51.824Z,101565.13
2023-09-27T08:58:27.037Z,101566.59
2023-09-27T09:00:56.546Z,101571.28
2023-09-27T09:03:25.399Z,101568.56
2023-09-27T09:05:54.268Z,101572.09
2023-09-27T09:08:33.318Z,101567.28
2023-09-27T09:11:20.771Z,101568.00
2023-09-27T09:14:08.481Z,101568.13
2023-09-27T09:16:49.146Z,101571.38
2023-09-27T09:22:17.329Z,101565.63
2023-09-27T09:24:45.387Z,101566.91
2023-09-27T09:27:18.593Z,101565.91
2023-09-27T09:29:52.318Z,101560.63
2023-09-27T09:32:28.851Z,101565.22
2023-09-27T09:34:57.921Z,101559.72
2023-09-27T09:37:31.405Z,101564.59
2023-09-27T09:40:18.151Z,101561.13
2023-09-27T09:42:52.533Z,101556.06
2023-09-27T09:45:21.736Z,101552.44
2023-09-27T09:47:49.851Z,101553.41
2023-09-27T09:50:20.985Z,101545.78
2023-09-27T09:52:59.115Z,101537.50
2023-09-27T09:56:01.122Z,101545.47
2023-09-27T09:58:56.327Z,101534.09
2023-09-27T10:01:33.749Z,101537.00
2023-09-27T10:04:07.317Z,101539.88
2023-09-27T10:06:48.758Z,101530.34
2023-09-27T10:09:19.796Z,101528.31
2023-09-27T10:11:49.530Z,101539.31
2023-09-27T10:14:19.990Z,101541.69
2023-09-27T10:16:51.760Z,101554.53
2023-09-27T10:19:30.912Z,101559.09
2023-09-27T10:22:28.137Z,101543.66
2023-09-27T10:24:56.563Z,101530.22
2023-09-27T10:28:07.927Z,101513.50
2023-09-27T10:30:42.059Z,101509.97
2023-09-27T10:33:18.962Z,101515.94
2023-09-27T10:36:06.930Z,101517.06
2023-09-27T10:38:44.107Z,101515.84
2023-09-27T10:41:35.755Z,101511.44
2023-09-27T10:44:06.646Z,101511.78
2023-09-27T10:46:51.565Z,101503.22
2023-09-27T10:49:29.091Z,101498.72
2023-09-27T10:52:06.380Z,101496.47
2023-09-27T10:54:36.634Z,101481.41
2023-09-27T10:57:04.879Z,101482.78
2023-09-27T10:59:32.935Z,101483.19
2023-09-27T11:02:01.216Z,101478.63
2023-09-27T11:04:29.267Z,101473.03
2023-09-27T11:06:57.756Z,101463.88
2023-09-27T11:09:27.386Z,101458.03
2023-09-27T11:11:58.827Z,101457.63
2023-09-27T11:14:35.522Z,101458.88
2023-09-27T11:17:24.356Z,101447.97
2023-09-27T11:19:54.311Z,101445.41
2023-09-27T11:22:30.663Z,101440.78
2023-09-27T11:24:59.125Z,101444.09
2023-09-27T11:27:27.272Z,101450.69
2023-09-27T11:29:56.353Z,101432.53
2023-09-27T11:32:25.613Z,101428.44
2023-09-27T11:36:23.262Z,101423.97
2023-09-27T11:38:54.053Z,101421.91
2023-09-27T11:41:22.262Z,101427.00
2023-09-27T11:43:50.383Z,101427.94
2023-09-27T11:46:29.307Z,101422.13
2023-09-27T11:56:59.465Z,101388.03
2023-09-27T11:59:30.981Z,101391.72
2023-09-27T12:02:28.305Z,101383.69
2023-09-27T12:04:59.916Z,101374.13
2023-09-27T12:07:31.962Z,101380.53
2023-09-27T12:10:01.463Z,101373.97
2023-09-27T12:12:29.935Z,101363.25
2023-09-27T12:14:59.128Z,101363.13
2023-09-27T12:17:27.761Z,101362.44
2023-09-27T12:19:56.290Z,101359.09
2023-09-27T12:22:31.060Z,101361.63
2023-09-27T12:24:59.550Z,101356.91
2023-09-27T12:27:28.066Z,101352.88
2023-09-27T12:29:56.513Z,101341.47
2023-09-27T12:32:25.395Z,101339.59
2023-09-27T12:34:54.665Z,101333.13
2023-09-27T12:37:23.395Z,101328.03
2023-09-27T12:39:52.454Z,101323.69
2023-09-27T12:42:21.598Z,101323.72
2023-09-27T12:44:51.059Z,101323.44
2023-09-27T12:47:19.561Z,101319.28
2023-09-27T12:49:48.394Z,101310.03
2023-09-27T12:52:17.089Z,101301.03
2023-09-27T12:54:47.423Z,101296.03
2023-09-27T12:57:16.106Z,101301.00
2023-09-27T12:59:44.608Z,101297.72
2023-09-27T13:02:13.356Z,101297.44
2023-09-27T13:04:42.044Z,101299.66
2023-09-27T13:07:10.792Z,101295.63
2023-09-27T13:09:41.212Z,101293.44
2023-09-27T13:12:10.452Z,101294.69
2023-09-27T13:14:39.022Z,101294.69
2023-09-27T13:17:07.914Z,101290.38
2023-09-27T13:19:36.530Z,101279.94
2023-09-27T13:22:05.664Z,101277.56
2023-09-27T13:24:34.552Z,101272.84
2023-09-27T13:27:03.313Z,101277.84
2023-09-27T13:29:32.693Z,101271.63
2023-09-27T13:32:01.366Z,101260.16
2023-09-27T13:34:31.207Z,101260.47
2023-09-27T13:36:59.969Z,101260.00
2023-09-27T13:39:31.570Z,101253.03
2023-09-27T13:42:00.377Z,101248.47
2023-09-27T13:44:29.182Z,101240.19
2023-09-27T13:46:58.400Z,101246.75
2023-09-27T13:49:26.963Z,101242.59
2023-09-27T13:51:55.484Z,101246.69
2023-09-27T13:54:24.616Z,101243.91
2023-09-27T13:56:53.256Z,101237.13
2023-09-27T13:59:21.867Z,101237.81
2023-09-27T14:01:50.809Z,101234.34
2023-09-27T14:04:19.649Z,101230.63
2023-09-27T14:06:48.500Z,101222.56
2023-09-27T14:09:17.949Z,101222.38
2023-09-27T14:11:46.593Z,101218.41
2023-09-27T14:14:16.670Z,101212.09
2023-09-27T14:16:45.536Z,101215.13
2023-09-27T14:19:15.454Z,101207.81
2023-09-27T14:21:46.560Z,101209.63
2023-09-27T14:24:15.123Z,101211.56
2023-09-27T14:26:45.827Z,101209.34
2023-09-27T14:29:22.272Z,101200.34
2023-09-27T14:32:02.875Z,101200.63
2023-09-27T14:37:08.695Z,101202.00
2023-09-27T14:39:37.352Z,101198.28
2023-09-27T14:42:06.219Z,101198.09
2023-09-27T14:44:34.682Z,101194.75
2023-09-27T14:47:03.446Z,101196.84
2023-09-27T14:49:32.773Z,101202.13
2023-09-27T14:52:01.557Z,101204.72
2023-09-27T14:54:30.070Z,101205.59
2023-09-27T14:57:00.263Z,101195.09
2023-09-27T14:59:28.787Z,101187.06
2023-09-27T15:01:59.472Z,101188.63
2023-09-27T15:04:29.059Z,101188.88
2023-09-27T15:06:57.780Z,101188.09
2023-09-27T15:09:26.452Z,101181.31
2023-09-27T15:11:55.048Z,101189.06
2023-09-27T15:14:23.508Z,101186.41
2023-09-27T15:16:52.213Z,101192.16
2023-09-27T15:19:20.724Z,101181.63
2023-09-27T15:21:49.244Z,101181.91
2023-09-27T15:24:17.934Z,101182.06
2023-09-27T15:26:48.412Z,101177.50
2023-09-27T15:29:17.337Z,101176.75
2023-09-27T15:31:45.901Z,101177.00
2023-09-27T15:34:14.552Z,101170.00
2023-09-27T15:36:43.343Z,101172.50
2023-09-27T15:39:12.235Z,101168.53
2023-09-27T15:41:40.765Z,101167.69
2023-09-27T15:44:09.834Z,101160.84
2023-09-27T15:46:42.443Z,101166.94
2023-09-27T15:49:11.160Z,101159.66
2023-09-27T15:51:40.959Z,101165.16
2023-09-27T15:54:18.066Z,101161.69
2023-09-27T15:56:47.357Z,101157.88
2023-09-27T15:59:16.593Z,101145.50
2023-09-27T16:01:45.383Z,101144.94
2023-09-27T16:04:14.476Z,101161.69
2023-09-27T16:06:43.087Z,101163.34
2023-09-27T16:09:17.119Z,101163.69
2023-09-27T16:11:45.775Z,101158.88
2023-09-27T16:14:14.285Z,101160.44
2023-09-27T16:16:43.490Z,101159.88
2023-09-27T16:19:13.098Z,101159.06
2023-09-27T16:21:41.724Z,101171.78
2023-09-27T16:24:10.768Z,101162.75
2023-09-27T16:26:39.369Z,101163.97
2023-09-27T16:29:08.667Z,101160.59
2023-09-27T16:31:38.710Z,101159.94
2023-09-27T16:34:07.229Z,101158.13
2023-09-27T16:36:36.413Z,101157.81
2023-09-27T16:39:05.120Z,101165.66
2023-09-27T16:41:33.756Z,101163.97
2023-09-27T16:44:04.979Z,101153.50
2023-09-27T16:46:34.306Z,101152.91
2023-09-27T16:49:02.970Z,101159.44
2023-09-27T16:51:31.639Z,101147.63
2023-09-27T16:54:00.144Z,101146.97
2023-09-27T16:56:28.698Z,101156.56
2023-09-27T16:58:58.011Z,101158.34
2023-09-27T17:01:27.985Z,101155.75
2023-09-27T17:03:57.211Z,101164.59
2023-09-27T17:06:25.675Z,101168.13
2023-09-27T17:08:55.253Z,101165.44
2023-09-27T17:11:27.161Z,101165.31
2023-09-27T17:13:55.902Z,101160.94
2023-09-27T17:16:30.164Z,101162.53
2023-09-27T17:18:58.824Z,101154.63
2023-09-27T17:21:27.428Z,101151.03
2023-09-27T17:23:56.711Z,101140.22
2023-09-27T17:26:25.281Z,101137.38
2023-09-27T17:28:54.942Z,101118.38
2023-09-27T17:31:23.542Z,101127.25
2023-09-27T17:33:54.211Z,101125.47
2023-09-27T17:36:23.905Z,101132.84
2023-09-27T17:38:52.339Z,101131.63
2023-09-27T17:41:21.021Z,101121.53
2023-09-27T17:43:50.203Z,101108.72
2023-09-27T17:46:31.302Z,101105.94
2023-09-27T17:49:03.018Z,101103.38
2023-09-27T17:51:31.686Z,101115.13
2023-09-27T17:54:01.119Z,101114.97
2023-09-27T17:56:29.900Z,101112.63
2023-09-27T17:58:59.146Z,101117.09
2023-09-27T18:01:27.776Z,101115.25
2023-09-27T18:03:57.423Z,101121.41
2023-09-27T18:06:26.328Z,101116.22
2023-09-27T18:08:54.999Z,101113.09
2023-09-27T18:11:23.830Z,101119.47
2023-09-27T18:16:23.253Z,101111.22
2023-09-27T18:18:53.671Z,101116.78
2023-09-27T18:21:23.038Z,101121.78
2023-09-27T18:23:52.671Z,101130.78
2023-09-27T18:26:24.824Z,101134.91
2023-09-27T18:28:53.608Z,101136.94
2023-09-27T18:31:22.350Z,101139.53
2023-09-27T18:33:51.909Z,101139.34
2023-09-27T18:36:20.581Z,101129.16
2023-09-27T18:38:49.028Z,101142.13
2023-09-27T18:41:17.596Z,101143.03
2023-09-27T18:43:46.330Z,101136.56
2023-09-27T18:46:15.435Z,101124.50
2023-09-27T18:48:44.672Z,101122.41
2023-09-27T18:51:13.792Z,101110.16
2023-09-27T18:53:42.319Z,101102.91
2023-09-27T18:56:10.796Z,101099.50
2023-09-27T18:58:39.453Z,101094.47
2023-09-27T19:01:08.008Z,101099.41
2023-09-27T19:03:36.499Z,101098.09
2023-09-27T19:06:05.329Z,101093.13
2023-09-27T19:08:33.770Z,101090.66
2023-09-27T19:11:02.336Z,101089.66
2023-09-27T19:13:30.804Z,101085.88
2023-09-27T19:15:59.547Z,101091.59
2023-09-27T19:18:28.820Z,101084.75
2023-09-27T19:20:57.525Z,101076.59
2023-09-27T19:23:26.218Z,101086.59
2023-09-27T19:25:56.333Z,101084.75
2023-09-27T19:28:26.361Z,101079.19
2023-09-27T19:30:54.934Z,101080.84
2023-09-27T19:33:23.432Z,101077.13
2023-09-27T19:35:52.603Z,101071.56
2023-09-27T19:38:22.077Z,101059.97
2023-09-27T19:40:50.676Z,101056.72
2023-09-27T19:43:20.216Z,101061.63
2023-09-27T19:45:49.081Z,101061.81
2023-09-27T19:48:17.542Z,101060.25
2023-09-27T19:50:46.931Z,101061.19
2023-09-27T19:53:15.582Z,101060.53
2023-09-27T19:55:44.136Z,101061.13
2023-09-27T19:58:12.698Z,101054.78
2023-09-27T20:00:41.696Z,101056.91
2023-09-27T20:03:11.192Z,101061.84
2023-09-27T20:05:39.759Z,101062.88
2023-09-27T20:08:08.532Z,101062.31
2023-09-27T20:10:37.180Z,101063.22
2023-09-27T20:13:05.854Z,101050.91
2023-09-27T20:15:34.377Z,101050.81
2023-09-27T20:18:03.073Z,101051.75
2023-09-27T20:20:31.641Z,101060.81
2023-09-27T20:23:00.188Z,101069.00
2023-09-27T20:25:28.820Z,101064.34
2023-09-27T20:27:57.447Z,101069.03
2023-09-27T20:30:26.748Z,101070.31
2023-09-27T20:32:56.019Z,101062.31
2023-09-27T20:35:24.530Z,101061.94
2023-09-27T20:37:53.108Z,101067.47
2023-09-27T20:40:22.206Z,101059.22
2023-09-27T20:42:51.012Z,101063.03
2023-09-27T20:45:20.837Z,101058.41
2023-09-27T20:47:50.725Z,101057.28
2023-09-27T20:50:20.068Z,101056.38
2023-09-27T20:52:48.898Z,101048.69
2023-09-27T20:55:17.632Z,101058.22
2023-09-27T20:57:46.361Z,101049.44
2023-09-27T21:00:16.081Z,101041.56
2023-09-27T21:02:44.899Z,101039.81
2023-09-27T21:05:13.367Z,101052.31
2023-09-27T21:07:41.923Z,101053.16
2023-09-27T21:10:11.454Z,101051.56
2023-09-27T21:12:40.060Z,101051.78
2023-09-27T21:15:09.906Z,101047.72
2023-09-27T21:17:38.474Z,101051.41
2023-09-27T21:20:09.125Z,101055.00
2023-09-27T21:22:37.985Z,101043.97
2023-09-27T21:25:07.856Z,101049.03
2023-09-27T21:27:36.690Z,101035.94
2023-09-27T21:30:08.103Z,101034.75
2023-09-27T21:32:37.184Z,101029.91
2023-09-27T21:35:06.474Z,101013.03
2023-09-27T21:37:35.095Z,101010.63
2023-09-27T21:40:07.530Z,101003.91
2023-09-27T21:42:36.640Z,101000.00
2023-09-27T21:45:06.139Z,100996.47
2023-09-27T21:47:34.688Z,101004.78
2023-09-27T21:50:03.431Z,101004.31
2023-09-27T21:52:37.518Z,100985.19
2023-09-27T21:55:07.399Z,100982.56
2023-09-27T21:57:36.235Z,100980.91
2023-09-27T22:00:06.849Z,100982.13
2023-09-27T22:02:41.884Z,100965.84
2023-09-27T22:05:10.662Z,100971.38
2023-09-27T22:07:39.386Z,100972.59
2023-09-27T22:10:09.957Z,100971.47
2023-09-27T22:12:38.780Z,100974.97
2023-09-27T22:15:11.396Z,100987.44
2023-09-27T22:17:40.330Z,100993.81
2023-09-27T22:20:13.472Z,100995.88
2023-09-27T22:22:42.321Z,100983.81
2023-09-27T22:25:14.847Z,100980.28
2023-09-27T22:27:48.480Z,100990.13
2023-09-27T22:30:17.181Z,100976.31
2023-09-27T22:32:46.949Z,100969.78
2023-09-27T22:35:28.973Z,100954.06
2023-09-27T22:37:58.619Z,100954.72
2023-09-27T22:40:27.273Z,100944.22
2023-09-27T22:42:57.219Z,100937.91
2023-09-27T22:45:36.989Z,100919.38
2023-09-27T22:48:06.660Z,100936.75
2023-09-27T22:50:46.223Z,100946.09
2023-09-27T22:53:20.384Z,100934.75
2023-09-27T22:55:59.751Z,100935.06
2023-09-27T22:58:32.355Z,100943.06
2023-09-27T23:01:22.280Z,100934.91
2023-09-27T23:03:55.640Z,100940.72
2023-09-27T23:06:24.968Z,100936.78
2023-09-27T23:08:54.497Z,100943.16
2023-09-27T23:11:30.337Z,100945.56
2023-09-27T23:14:06.608Z,100939.38
2023-09-27T23:16:46.839Z,100936.44
2023-09-27T23:19:18.015Z,100938.47
2023-09-27T23:21:47.628Z,100948.34
2023-09-27T23:24:24.715Z,100942.63
2023-09-27T23:26:53.416Z,100936.56
2023-09-27T23:29:32.299Z,100932.03
2023-09-27T23:32:24.372Z,100924.41
2023-09-27T23:34:55.856Z,100922.63
2023-09-27T23:37:34.969Z,100927.06
2023-09-27T23:40:06.071Z,100924.16
2023-09-27T23:42:37.508Z,100925.56
2023-09-27T23:45:13.179Z,100929.09
2023-09-27T23:47:51.637Z,100937.09
2023-09-27T23:50:20.411Z,100939.84
2023-09-27T23:52:49.718Z,100962.47
2023-09-27T23:55:19.320Z,100975.81
2023-09-27T23:57:49.213Z,100984.91
